sensor_id;sensor_type;location;lat;lon;timestamp;temperature;humidity
54540;SHT30;40438;52.992;18.604;2023-06-26T00:00:31;20.46;61.85
54540;SHT30;40438;52.992;18.604;2023-06-26T00:02:57;20.42;62.08
54540;SHT30;40438;52.992;18.604;2023-06-26T00:05:22;20.42;62.49
54540;SHT30;40438;52.992;18.604;2023-06-26T00:07:48;20.43;62.24
54540;SHT30;40438;52.992;18.604;2023-06-26T00:10:15;20.45;62.03
54540;SHT30;40438;52.992;18.604;2023-06-26T00:12:41;20.42;62.34
54540;SHT30;40438;52.992;18.604;2023-06-26T00:15:07;20.42;62.28
54540;SHT30;40438;52.992;18.604;2023-06-26T00:17:33;20.39;62.27
54540;SHT30;40438;52.992;18.604;2023-06-26T00:19:59;20.38;62.34
54540;SHT30;40438;52.992;18.604;2023-06-26T00:22:25;20.41;62.28
54540;SHT30;40438;52.992;18.604;2023-06-26T00:24:51;20.42;62.34
54540;SHT30;40438;52.992;18.604;2023-06-26T00:27:18;20.42;62.49
54540;SHT30;40438;52.992;18.604;2023-06-26T00:29:43;20.35;62.84
54540;SHT30;40438;52.992;18.604;2023-06-26T00:32:09;20.25;63.29
54540;SHT30;40438;52.992;18.604;2023-06-26T00:34:36;20.14;63.81
54540;SHT30;40438;52.992;18.604;2023-06-26T00:37:02;20.08;63.92
54540;SHT30;40438;52.992;18.604;2023-06-26T00:39:30;20.04;64.07
54540;SHT30;40438;52.992;18.604;2023-06-26T00:41:55;19.97;64.37
54540;SHT30;40438;52.992;18.604;2023-06-26T00:44:23;19.93;64.45
54540;SHT30;40438;52.992;18.604;2023-06-26T00:46:49;19.87;64.32
54540;SHT30;40438;52.992;18.604;2023-06-26T00:49:14;19.81;64.54
54540;SHT30;40438;52.992;18.604;2023-06-26T00:51:41;19.63;65.17
54540;SHT30;40438;52.992;18.604;2023-06-26T00:54:07;19.63;65.37
54540;SHT30;40438;52.992;18.604;2023-06-26T00:56:34;19.50;65.75
54540;SHT30;40438;52.992;18.604;2023-06-26T00:59:00;19.42;65.88
54540;SHT30;40438;52.992;18.604;2023-06-26T01:01:27;19.31;66.27
54540;SHT30;40438;52.992;18.604;2023-06-26T01:03:54;19.19;66.36
54540;SHT30;40438;52.992;18.604;2023-06-26T01:06:21;18.99;67.00
54540;SHT30;40438;52.992;18.604;2023-06-26T01:08:48;18.84;67.21
54540;SHT30;40438;52.992;18.604;2023-06-26T01:11:14;18.67;67.61
54540;SHT30;40438;52.992;18.604;2023-06-26T01:13:42;18.49;68.19
54540;SHT30;40438;52.992;18.604;2023-06-26T01:16:09;18.42;68.52
54540;SHT30;40438;52.992;18.604;2023-06-26T01:18:37;18.27;69.23
54540;SHT30;40438;52.992;18.604;2023-06-26T01:21:04;18.19;69.57
54540;SHT30;40438;52.992;18.604;2023-06-26T01:23:35;18.16;69.57
54540;SHT30;40438;52.992;18.604;2023-06-26T01:26:22;18.16;69.65
54540;SHT30;40438;52.992;18.604;2023-06-26T01:28:50;18.15;69.50
54540;SHT30;40438;52.992;18.604;2023-06-26T01:31:16;18.01;69.60
54540;SHT30;40438;52.992;18.604;2023-06-26T01:33:43;17.89;69.64
54540;SHT30;40438;52.992;18.604;2023-06-26T01:36:10;17.99;69.11
54540;SHT30;40438;52.992;18.604;2023-06-26T01:38:36;17.95;69.30
54540;SHT30;40438;52.992;18.604;2023-06-26T01:41:02;17.74;69.79
54540;SHT30;40438;52.992;18.604;2023-06-26T01:43:36;17.64;69.97
54540;SHT30;40438;52.992;18.604;2023-06-26T01:46:11;17.54;70.37
54540;SHT30;40438;52.992;18.604;2023-06-26T01:48:44;17.46;70.33
54540;SHT30;40438;52.992;18.604;2023-06-26T01:51:14;17.47;70.40
54540;SHT30;40438;52.992;18.604;2023-06-26T01:53:46;17.60;70.16
54540;SHT30;40438;52.992;18.604;2023-06-26T01:56:16;17.74;69.79
54540;SHT30;40438;52.992;18.604;2023-06-26T01:58:46;17.84;69.53
54540;SHT30;40438;52.992;18.604;2023-06-26T02:01:12;17.91;69.32
54540;SHT30;40438;52.992;18.604;2023-06-26T02:03:38;17.74;69.67
54540;SHT30;40438;52.992;18.604;2023-06-26T02:06:04;17.60;70.07
54540;SHT30;40438;52.992;18.604;2023-06-26T02:08:30;17.55;70.37
54540;SHT30;40438;52.992;18.604;2023-06-26T02:10:56;17.48;70.88
54540;SHT30;40438;52.992;18.604;2023-06-26T02:13:22;17.37;71.10
54540;SHT30;40438;52.992;18.604;2023-06-26T02:15:49;17.26;71.48
54540;SHT30;40438;52.992;18.604;2023-06-26T02:18:15;17.20;71.96
54540;SHT30;40438;52.992;18.604;2023-06-26T02:20:41;17.20;72.17
54540;SHT30;40438;52.992;18.604;2023-06-26T02:23:07;17.15;72.44
54540;SHT30;40438;52.992;18.604;2023-06-26T02:25:35;17.10;72.74
54540;SHT30;40438;52.992;18.604;2023-06-26T02:28:01;17.10;72.79
54540;SHT30;40438;52.992;18.604;2023-06-26T02:30:26;17.06;73.10
54540;SHT30;40438;52.992;18.604;2023-06-26T02:32:54;17.00;73.32
54540;SHT30;40438;52.992;18.604;2023-06-26T02:35:19;17.05;73.30
54540;SHT30;40438;52.992;18.604;2023-06-26T02:37:45;17.03;73.47
54540;SHT30;40438;52.992;18.604;2023-06-26T02:40:12;16.96;73.86
54540;SHT30;40438;52.992;18.604;2023-06-26T02:42:40;16.95;73.94
54540;SHT30;40438;52.992;18.604;2023-06-26T02:45:07;16.94;73.91
54540;SHT30;40438;52.992;18.604;2023-06-26T02:47:33;16.92;74.04
54540;SHT30;40438;52.992;18.604;2023-06-26T02:50:00;16.91;73.96
54540;SHT30;40438;52.992;18.604;2023-06-26T02:52:31;16.79;74.38
54540;SHT30;40438;52.992;18.604;2023-06-26T02:54:58;16.85;74.08
54540;SHT30;40438;52.992;18.604;2023-06-26T02:57:24;16.86;74.12
54540;SHT30;40438;52.992;18.604;2023-06-26T02:59:50;16.89;73.94
54540;SHT30;40438;52.992;18.604;2023-06-26T03:02:16;16.86;74.16
54540;SHT30;40438;52.992;18.604;2023-06-26T03:04:45;16.95;73.97
54540;SHT30;40438;52.992;18.604;2023-06-26T03:07:14;16.82;74.22
54540;SHT30;40438;52.992;18.604;2023-06-26T03:09:41;16.80;74.29
54540;SHT30;40438;52.992;18.604;2023-06-26T03:12:08;16.82;74.19
54540;SHT30;40438;52.992;18.604;2023-06-26T03:14:34;16.76;74.44
54540;SHT30;40438;52.992;18.604;2023-06-26T03:17:00;16.73;74.38
54540;SHT30;40438;52.992;18.604;2023-06-26T03:19:27;16.75;74.47
54540;SHT30;40438;52.992;18.604;2023-06-26T03:22:33;16.76;74.59
54540;SHT30;40438;52.992;18.604;2023-06-26T03:24:59;16.79;74.59
54540;SHT30;40438;52.992;18.604;2023-06-26T03:27:25;16.80;74.64
54540;SHT30;40438;52.992;18.604;2023-06-26T03:29:51;16.85;74.74
54540;SHT30;40438;52.992;18.604;2023-06-26T03:32:20;16.89;74.84
54540;SHT30;40438;52.992;18.604;2023-06-26T03:34:45;16.95;74.82
54540;SHT30;40438;52.992;18.604;2023-06-26T03:37:11;17.06;74.66
54540;SHT30;40438;52.992;18.604;2023-06-26T03:39:39;17.16;74.73
54540;SHT30;40438;52.992;18.604;2023-06-26T03:42:05;17.30;74.66
54540;SHT30;40438;52.992;18.604;2023-06-26T03:44:32;17.40;74.56
54540;SHT30;40438;52.992;18.604;2023-06-26T03:46:58;17.51;74.54
54540;SHT30;40438;52.992;18.604;2023-06-26T03:49:24;17.58;74.77
54540;SHT30;40438;52.992;18.604;2023-06-26T03:51:51;17.64;74.60
54540;SHT30;40438;52.992;18.604;2023-06-26T03:54:17;17.71;74.60
54540;SHT30;40438;52.992;18.604;2023-06-26T03:56:44;17.77;74.55
54540;SHT30;40438;52.992;18.604;2023-06-26T03:59:10;17.84;74.42
54540;SHT30;40438;52.992;18.604;2023-06-26T04:01:36;17.94;74.29
54540;SHT30;40438;52.992;18.604;2023-06-26T04:04:04;18.08;73.70
54540;SHT30;40438;52.992;18.604;2023-06-26T04:06:31;18.23;73.14
54540;SHT30;40438;52.992;18.604;2023-06-26T04:08:57;18.33;72.99
54540;SHT30;40438;52.992;18.604;2023-06-26T04:11:23;18.37;72.97
54540;SHT30;40438;52.992;18.604;2023-06-26T04:13:51;18.46;73.01
54540;SHT30;40438;52.992;18.604;2023-06-26T04:16:17;18.47;72.93
54540;SHT30;40438;52.992;18.604;2023-06-26T04:18:43;18.47;72.86
54540;SHT30;40438;52.992;18.604;2023-06-26T04:21:10;18.52;72.87
54540;SHT30;40438;52.992;18.604;2023-06-26T04:23:36;18.56;72.63
54540;SHT30;40438;52.992;18.604;2023-06-26T04:26:02;18.64;72.29
54540;SHT30;40438;52.992;18.604;2023-06-26T04:28:27;18.73;71.89
54540;SHT30;40438;52.992;18.604;2023-06-26T04:30:55;18.84;71.26
54540;SHT30;40438;52.992;18.604;2023-06-26T04:33:20;18.94;71.02
54540;SHT30;40438;52.992;18.604;2023-06-26T04:35:46;19.04;70.73
54540;SHT30;40438;52.992;18.604;2023-06-26T04:38:12;19.12;70.34
54540;SHT30;40438;52.992;18.604;2023-06-26T04:40:38;19.15;70.46
54540;SHT30;40438;52.992;18.604;2023-06-26T04:43:03;19.25;70.18
54540;SHT30;40438;52.992;18.604;2023-06-26T04:45:29;19.33;69.84
54540;SHT30;40438;52.992;18.604;2023-06-26T04:47:56;19.35;69.87
54540;SHT30;40438;52.992;18.604;2023-06-26T04:50:22;19.41;69.85
54540;SHT30;40438;52.992;18.604;2023-06-26T04:52:48;19.42;69.58
54540;SHT30;40438;52.992;18.604;2023-06-26T04:55:14;19.49;69.12
54540;SHT30;40438;52.992;18.604;2023-06-26T04:57:40;19.54;68.80
54540;SHT30;40438;52.992;18.604;2023-06-26T05:00:06;19.57;68.57
54540;SHT30;40438;52.992;18.604;2023-06-26T05:02:32;19.69;68.32
54540;SHT30;40438;52.992;18.604;2023-06-26T05:04:59;19.80;68.20
54540;SHT30;40438;52.992;18.604;2023-06-26T05:07:25;19.87;67.97
54540;SHT30;40438;52.992;18.604;2023-06-26T05:09:51;19.97;67.61
54540;SHT30;40438;52.992;18.604;2023-06-26T05:12:17;20.03;67.81
54540;SHT30;40438;52.992;18.604;2023-06-26T05:14:42;20.10;67.76
54540;SHT30;40438;52.992;18.604;2023-06-26T05:17:08;20.17;67.47
54540;SHT30;40438;52.992;18.604;2023-06-26T05:19:34;20.29;67.28
54540;SHT30;40438;52.992;18.604;2023-06-26T05:22:02;20.36;67.17
54540;SHT30;40438;52.992;18.604;2023-06-26T05:24:29;20.38;67.08
54540;SHT30;40438;52.992;18.604;2023-06-26T05:26:56;20.45;66.79
54540;SHT30;40438;52.992;18.604;2023-06-26T05:29:22;20.53;66.97
54540;SHT30;40438;52.992;18.604;2023-06-26T05:31:49;20.59;66.72
54540;SHT30;40438;52.992;18.604;2023-06-26T05:34:18;20.64;66.62
54540;SHT30;40438;52.992;18.604;2023-06-26T05:36:46;20.70;66.47
54540;SHT30;40438;52.992;18.604;2023-06-26T05:39:15;20.75;66.49
54540;SHT30;40438;52.992;18.604;2023-06-26T05:41:42;20.80;66.57
54540;SHT30;40438;52.992;18.604;2023-06-26T05:44:08;20.84;66.41
54540;SHT30;40438;52.992;18.604;2023-06-26T05:46:34;20.89;66.29
54540;SHT30;40438;52.992;18.604;2023-06-26T05:48:59;20.94;66.43
54540;SHT30;40438;52.992;18.604;2023-06-26T05:51:26;20.99;66.42
54540;SHT30;40438;52.992;18.604;2023-06-26T05:53:52;21.07;66.24
54540;SHT30;40438;52.992;18.604;2023-06-26T05:56:20;21.11;66.23
54540;SHT30;40438;52.992;18.604;2023-06-26T05:58:46;21.20;66.07
54540;SHT30;40438;52.992;18.604;2023-06-26T06:01:12;21.27;65.72
54540;SHT30;40438;52.992;18.604;2023-06-26T06:03:39;21.34;65.41
54540;SHT30;40438;52.992;18.604;2023-06-26T06:06:05;21.41;65.49
54540;SHT30;40438;52.992;18.604;2023-06-26T06:08:30;21.48;65.05
54540;SHT30;40438;52.992;18.604;2023-06-26T06:10:56;21.52;65.22
54540;SHT30;40438;52.992;18.604;2023-06-26T06:13:23;21.61;65.42
54540;SHT30;40438;52.992;18.604;2023-06-26T06:15:49;21.66;65.33
54540;SHT30;40438;52.992;18.604;2023-06-26T06:18:15;21.69;65.05
54540;SHT30;40438;52.992;18.604;2023-06-26T06:20:41;21.75;65.07
54540;SHT30;40438;52.992;18.604;2023-06-26T06:23:06;21.83;64.79
54540;SHT30;40438;52.992;18.604;2023-06-26T06:25:32;21.86;64.75
54540;SHT30;40438;52.992;18.604;2023-06-26T06:27:58;21.93;64.72
54540;SHT30;40438;52.992;18.604;2023-06-26T06:30:25;22.00;64.55
54540;SHT30;40438;52.992;18.604;2023-06-26T06:32:51;22.08;64.17
54540;SHT30;40438;52.992;18.604;2023-06-26T06:35:17;22.12;64.07
54540;SHT30;40438;52.992;18.604;2023-06-26T06:37:43;22.17;64.32
54540;SHT30;40438;52.992;18.604;2023-06-26T06:40:10;22.24;63.74
54540;SHT30;40438;52.992;18.604;2023-06-26T06:42:35;22.31;63.57
54540;SHT30;40438;52.992;18.604;2023-06-26T06:45:02;22.34;63.26
54540;SHT30;40438;52.992;18.604;2023-06-26T06:47:31;22.45;63.21
54540;SHT30;40438;52.992;18.604;2023-06-26T06:49:57;22.51;62.69
54540;SHT30;40438;52.992;18.604;2023-06-26T06:52:22;22.61;62.00
54540;SHT30;40438;52.992;18.604;2023-06-26T06:54:52;22.61;62.30
54540;SHT30;40438;52.992;18.604;2023-06-26T06:57:17;22.67;62.38
54540;SHT30;40438;52.992;18.604;2023-06-26T06:59:43;22.72;62.28
54540;SHT30;40438;52.992;18.604;2023-06-26T07:02:09;22.84;61.80
54540;SHT30;40438;52.992;18.604;2023-06-26T07:04:36;22.91;59.89
54540;SHT30;40438;52.992;18.604;2023-06-26T07:07:02;22.94;59.74
54540;SHT30;40438;52.992;18.604;2023-06-26T07:09:28;23.02;60.28
54540;SHT30;40438;52.992;18.604;2023-06-26T07:11:54;23.06;59.31
54540;SHT30;40438;52.992;18.604;2023-06-26T07:14:19;23.14;59.79
54540;SHT30;40438;52.992;18.604;2023-06-26T07:16:45;23.11;60.38
54540;SHT30;40438;52.992;18.604;2023-06-26T07:19:11;23.27;59.63
54540;SHT30;40438;52.992;18.604;2023-06-26T07:21:38;23.29;59.73
54540;SHT30;40438;52.992;18.604;2023-06-26T07:24:04;23.32;60.00
54540;SHT30;40438;52.992;18.604;2023-06-26T07:26:30;23.42;60.29
54540;SHT30;40438;52.992;18.604;2023-06-26T07:28:55;23.49;59.61
54540;SHT30;40438;52.992;18.604;2023-06-26T07:31:21;23.60;58.87
54540;SHT30;40438;52.992;18.604;2023-06-26T07:33:47;23.64;58.53
54540;SHT30;40438;52.992;18.604;2023-06-26T07:36:13;23.70;58.67
54540;SHT30;40438;52.992;18.604;2023-06-26T07:38:40;23.80;58.53
54540;SHT30;40438;52.992;18.604;2023-06-26T07:41:06;23.84;59.12
54540;SHT30;40438;52.992;18.604;2023-06-26T07:43:31;23.90;59.18
54540;SHT30;40438;52.992;18.604;2023-06-26T07:45:57;23.97;59.21
54540;SHT30;40438;52.992;18.604;2023-06-26T07:48:23;24.08;57.07
54540;SHT30;40438;52.992;18.604;2023-06-26T07:50:49;24.09;56.77
54540;SHT30;40438;52.992;18.604;2023-06-26T07:53:14;24.12;57.32
54540;SHT30;40438;52.992;18.604;2023-06-26T07:55:42;24.26;57.62
54540;SHT30;40438;52.992;18.604;2023-06-26T07:58:08;24.26;56.39
54540;SHT30;40438;52.992;18.604;2023-06-26T08:00:34;24.34;57.00
54540;SHT30;40438;52.992;18.604;2023-06-26T08:03:00;24.38;56.94
54540;SHT30;40438;52.992;18.604;2023-06-26T08:05:26;24.51;55.25
54540;SHT30;40438;52.992;18.604;2023-06-26T08:07:52;24.56;54.24
54540;SHT30;40438;52.992;18.604;2023-06-26T08:10:17;24.62;53.95
54540;SHT30;40438;52.992;18.604;2023-06-26T08:12:45;24.62;54.22
54540;SHT30;40438;52.992;18.604;2023-06-26T08:15:11;24.67;54.68
54540;SHT30;40438;52.992;18.604;2023-06-26T08:17:37;24.77;54.33
54540;SHT30;40438;52.992;18.604;2023-06-26T08:20:04;24.82;52.88
54540;SHT30;40438;52.992;18.604;2023-06-26T08:22:30;24.84;52.59
54540;SHT30;40438;52.992;18.604;2023-06-26T08:24:56;24.91;52.98
54540;SHT30;40438;52.992;18.604;2023-06-26T08:27:22;25.00;51.75
54540;SHT30;40438;52.992;18.604;2023-06-26T08:29:49;25.07;50.86
54540;SHT30;40438;52.992;18.604;2023-06-26T08:32:15;25.10;50.47
54540;SHT30;40438;52.992;18.604;2023-06-26T08:34:41;25.11;50.49
54540;SHT30;40438;52.992;18.604;2023-06-26T08:37:06;25.24;49.94
54540;SHT30;40438;52.992;18.604;2023-06-26T08:39:32;25.25;49.34
54540;SHT30;40438;52.992;18.604;2023-06-26T08:41:58;25.27;49.98
54540;SHT30;40438;52.992;18.604;2023-06-26T08:44:24;25.31;50.39
54540;SHT30;40438;52.992;18.604;2023-06-26T08:46:52;25.41;51.07
54540;SHT30;40438;52.992;18.604;2023-06-26T08:49:21;25.55;50.42
54540;SHT30;40438;52.992;18.604;2023-06-26T08:51:52;25.68;50.52
54540;SHT30;40438;52.992;18.604;2023-06-26T08:54:25;25.88;48.96
54540;SHT30;40438;52.992;18.604;2023-06-26T08:56:53;25.89;49.28
54540;SHT30;40438;52.992;18.604;2023-06-26T08:59:19;26.00;48.87
54540;SHT30;40438;52.992;18.604;2023-06-26T09:01:45;26.10;47.69
54540;SHT30;40438;52.992;18.604;2023-06-26T09:04:13;26.17;47.50
54540;SHT30;40438;52.992;18.604;2023-06-26T09:06:38;26.31;46.74
54540;SHT30;40438;52.992;18.604;2023-06-26T09:09:04;26.39;45.00
54540;SHT30;40438;52.992;18.604;2023-06-26T09:11:30;26.37;46.02
54540;SHT30;40438;52.992;18.604;2023-06-26T09:13:56;26.41;46.17
54540;SHT30;40438;52.992;18.604;2023-06-26T09:16:24;26.44;46.29
54540;SHT30;40438;52.992;18.604;2023-06-26T09:18:51;26.62;46.68
54540;SHT30;40438;52.992;18.604;2023-06-26T09:21:18;26.71;45.66
54540;SHT30;40438;52.992;18.604;2023-06-26T09:23:45;26.73;46.36
54540;SHT30;40438;52.992;18.604;2023-06-26T09:26:11;26.79;46.58
54540;SHT30;40438;52.992;18.604;2023-06-26T09:28:37;26.81;46.39
54540;SHT30;40438;52.992;18.604;2023-06-26T09:31:04;26.91;46.27
54540;SHT30;40438;52.992;18.604;2023-06-26T09:33:34;26.98;45.96
54540;SHT30;40438;52.992;18.604;2023-06-26T09:35:59;27.10;46.22
54540;SHT30;40438;52.992;18.604;2023-06-26T09:38:27;27.09;45.44
54540;SHT30;40438;52.992;18.604;2023-06-26T09:40:53;27.12;45.35
54540;SHT30;40438;52.992;18.604;2023-06-26T09:43:18;27.15;45.00
54540;SHT30;40438;52.992;18.604;2023-06-26T09:45:44;27.23;44.61
54540;SHT30;40438;52.992;18.604;2023-06-26T09:48:10;27.20;44.82
54540;SHT30;40438;52.992;18.604;2023-06-26T09:50:41;27.19;44.36
54540;SHT30;40438;52.992;18.604;2023-06-26T09:53:08;27.18;44.50
54540;SHT30;40438;52.992;18.604;2023-06-26T09:55:35;27.10;42.63
54540;SHT30;40438;52.992;18.604;2023-06-26T09:58:03;27.09;43.32
54540;SHT30;40438;52.992;18.604;2023-06-26T10:00:30;27.15;42.51
54540;SHT30;40438;52.992;18.604;2023-06-26T10:02:56;27.22;42.45
54540;SHT30;40438;52.992;18.604;2023-06-26T10:05:21;27.33;42.34
54540;SHT30;40438;52.992;18.604;2023-06-26T10:07:47;27.50;42.07
54540;SHT30;40438;52.992;18.604;2023-06-26T10:10:13;27.61;41.42
54540;SHT30;40438;52.992;18.604;2023-06-26T10:12:45;27.71;41.20
54540;SHT30;40438;52.992;18.604;2023-06-26T10:15:13;27.84;41.11
54540;SHT30;40438;52.992;18.604;2023-06-26T10:17:43;28.02;40.60
54540;SHT30;40438;52.992;18.604;2023-06-26T10:20:09;28.11;40.04
54540;SHT30;40438;52.992;18.604;2023-06-26T10:22:39;28.31;39.46
54540;SHT30;40438;52.992;18.604;2023-06-26T10:25:09;28.45;39.13
54540;SHT30;40438;52.992;18.604;2023-06-26T10:27:38;28.62;38.04
54540;SHT30;40438;52.992;18.604;2023-06-26T10:30:11;28.86;37.30
54540;SHT30;40438;52.992;18.604;2023-06-26T10:32:38;29.14;36.67
54540;SHT30;40438;52.992;18.604;2023-06-26T10:35:06;29.37;37.22
54540;SHT30;40438;52.992;18.604;2023-06-26T10:37:42;29.61;36.96
54540;SHT30;40438;52.992;18.604;2023-06-26T10:40:09;29.82;37.17
54540;SHT30;40438;52.992;18.604;2023-06-26T10:42:37;30.09;36.70
54540;SHT30;40438;52.992;18.604;2023-06-26T10:45:11;30.34;36.36
54540;SHT30;40438;52.992;18.604;2023-06-26T10:47:40;30.51;36.40
54540;SHT30;40438;52.992;18.604;2023-06-26T10:50:24;30.67;36.51
54540;SHT30;40438;52.992;18.604;2023-06-26T10:53:10;30.68;35.95
54540;SHT30;40438;52.992;18.604;2023-06-26T10:55:36;30.74;35.68
54540;SHT30;40438;52.992;18.604;2023-06-26T10:58:03;30.72;34.91
54540;SHT30;40438;52.992;18.604;2023-06-26T11:00:30;30.72;34.66
54540;SHT30;40438;52.992;18.604;2023-06-26T11:02:56;30.75;34.73
54540;SHT30;40438;52.992;18.604;2023-06-26T11:05:26;30.81;34.79
54540;SHT30;40438;52.992;18.604;2023-06-26T11:08:06;30.91;34.73
54540;SHT30;40438;52.992;18.604;2023-06-26T11:10:48;30.93;34.30
54540;SHT30;40438;52.992;18.604;2023-06-26T11:13:14;30.93;34.51
54540;SHT30;40438;52.992;18.604;2023-06-26T11:15:44;31.08;34.58
54540;SHT30;40438;52.992;18.604;2023-06-26T11:18:10;30.86;34.67
54540;SHT30;40438;52.992;18.604;2023-06-26T11:20:36;30.45;35.11
54540;SHT30;40438;52.992;18.604;2023-06-26T11:23:03;30.06;35.40
54540;SHT30;40438;52.992;18.604;2023-06-26T11:25:30;29.72;35.86
54540;SHT30;40438;52.992;18.604;2023-06-26T11:27:59;29.51;36.27
54540;SHT30;40438;52.992;18.604;2023-06-26T11:30:26;29.20;36.80
54540;SHT30;40438;52.992;18.604;2023-06-26T11:33:02;29.00;36.75
54540;SHT30;40438;52.992;18.604;2023-06-26T11:35:28;28.79;37.90
54540;SHT30;40438;52.992;18.604;2023-06-26T11:37:55;28.60;39.33
54540;SHT30;40438;52.992;18.604;2023-06-26T11:40:22;28.70;39.86
54540;SHT30;40438;52.992;18.604;2023-06-26T11:42:48;28.93;38.39
54540;SHT30;40438;52.992;18.604;2023-06-26T11:45:14;29.15;40.44
54540;SHT30;40438;52.992;18.604;2023-06-26T11:47:39;29.38;39.15
54540;SHT30;40438;52.992;18.604;2023-06-26T11:50:14;29.72;36.51
54540;SHT30;40438;52.992;18.604;2023-06-26T11:52:41;29.94;35.26
54540;SHT30;40438;52.992;18.604;2023-06-26T11:55:08;30.18;35.57
54540;SHT30;40438;52.992;18.604;2023-06-26T11:57:33;30.48;30.41
54540;SHT30;40438;52.992;18.604;2023-06-26T12:00:10;30.82;31.26
54540;SHT30;40438;52.992;18.604;2023-06-26T12:02:36;30.91;34.84
54540;SHT30;40438;52.992;18.604;2023-06-26T12:05:02;31.13;35.73
54540;SHT30;40438;52.992;18.604;2023-06-26T12:07:30;31.25;34.84
54540;SHT30;40438;52.992;18.604;2023-06-26T12:09:56;31.41;33.58
54540;SHT30;40438;52.992;18.604;2023-06-26T12:12:21;31.37;32.75
54540;SHT30;40438;52.992;18.604;2023-06-26T12:14:47;31.27;33.60
54540;SHT30;40438;52.992;18.604;2023-06-26T12:17:14;31.23;34.45
54540;SHT30;40438;52.992;18.604;2023-06-26T12:19:43;31.10;33.59
54540;SHT30;40438;52.992;18.604;2023-06-26T12:22:09;31.22;36.07
54540;SHT30;40438;52.992;18.604;2023-06-26T12:24:38;31.53;34.42
54540;SHT30;40438;52.992;18.604;2023-06-26T12:27:08;31.68;33.23
54540;SHT30;40438;52.992;18.604;2023-06-26T12:29:35;31.78;32.10
54540;SHT30;40438;52.992;18.604;2023-06-26T12:32:01;31.85;30.62
54540;SHT30;40438;52.992;18.604;2023-06-26T12:34:28;31.82;31.14
54540;SHT30;40438;52.992;18.604;2023-06-26T12:37:00;31.88;31.10
54540;SHT30;40438;52.992;18.604;2023-06-26T12:39:26;32.04;31.76
54540;SHT30;40438;52.992;18.604;2023-06-26T12:41:54;32.15;33.10
54540;SHT30;40438;52.992;18.604;2023-06-26T12:44:21;32.38;32.09
54540;SHT30;40438;52.992;18.604;2023-06-26T12:46:48;32.43;31.46
54540;SHT30;40438;52.992;18.604;2023-06-26T12:49:14;32.51;31.34
54540;SHT30;40438;52.992;18.604;2023-06-26T12:51:40;32.51;30.50
54540;SHT30;40438;52.992;18.604;2023-06-26T12:54:06;32.28;30.79
54540;SHT30;40438;52.992;18.604;2023-06-26T12:56:31;32.09;31.58
54540;SHT30;40438;52.992;18.604;2023-06-26T12:58:59;32.14;32.98
54540;SHT30;40438;52.992;18.604;2023-06-26T13:01:24;32.46;30.73
54540;SHT30;40438;52.992;18.604;2023-06-26T13:03:50;32.67;30.01
54540;SHT30;40438;52.992;18.604;2023-06-26T13:06:16;32.80;30.57
54540;SHT30;40438;52.992;18.604;2023-06-26T13:08:42;32.70;30.99
54540;SHT30;40438;52.992;18.604;2023-06-26T13:11:07;32.82;30.74
54540;SHT30;40438;52.992;18.604;2023-06-26T13:13:34;33.13;29.75
54540;SHT30;40438;52.992;18.604;2023-06-26T13:16:01;32.93;30.34
54540;SHT30;40438;52.992;18.604;2023-06-26T13:18:27;33.00;29.93
54540;SHT30;40438;52.992;18.604;2023-06-26T13:20:53;32.86;30.59
54540;SHT30;40438;52.992;18.604;2023-06-26T13:23:19;32.83;30.81
54540;SHT30;40438;52.992;18.604;2023-06-26T13:25:45;33.08;30.66
54540;SHT30;40438;52.992;18.604;2023-06-26T13:28:28;32.87;31.62
54540;SHT30;40438;52.992;18.604;2023-06-26T13:30:54;32.94;30.18
54540;SHT30;40438;52.992;18.604;2023-06-26T13:33:21;32.67;31.35
54540;SHT30;40438;52.992;18.604;2023-06-26T13:35:47;32.79;31.76
54540;SHT30;40438;52.992;18.604;2023-06-26T13:38:12;32.90;30.69
54540;SHT30;40438;52.992;18.604;2023-06-26T13:40:38;32.53;31.80
54540;SHT30;40438;52.992;18.604;2023-06-26T13:43:04;32.59;31.69
54540;SHT30;40438;52.992;18.604;2023-06-26T13:45:31;32.83;31.27
54540;SHT30;40438;52.992;18.604;2023-06-26T13:47:57;32.91;32.00
54540;SHT30;40438;52.992;18.604;2023-06-26T13:50:24;32.75;32.74
54540;SHT30;40438;52.992;18.604;2023-06-26T13:52:50;32.63;31.72
54540;SHT30;40438;52.992;18.604;2023-06-26T13:55:16;32.31;31.99
54540;SHT30;40438;52.992;18.604;2023-06-26T13:57:42;31.81;32.19
54540;SHT30;40438;52.992;18.604;2023-06-26T14:00:09;31.49;32.97
54540;SHT30;40438;52.992;18.604;2023-06-26T14:02:38;31.16;33.62
54540;SHT30;40438;52.992;18.604;2023-06-26T14:05:04;30.95;33.55
54540;SHT30;40438;52.992;18.604;2023-06-26T14:07:31;30.68;33.94
54540;SHT30;40438;52.992;18.604;2023-06-26T14:09:57;30.51;33.93
54540;SHT30;40438;52.992;18.604;2023-06-26T14:12:23;30.25;35.28
54540;SHT30;40438;52.992;18.604;2023-06-26T14:14:49;30.38;34.59
54540;SHT30;40438;52.992;18.604;2023-06-26T14:17:14;30.28;35.89
54540;SHT30;40438;52.992;18.604;2023-06-26T14:19:40;30.37;34.16
54540;SHT30;40438;52.992;18.604;2023-06-26T14:22:06;30.76;33.53
54540;SHT30;40438;52.992;18.604;2023-06-26T14:24:33;31.25;33.45
54540;SHT30;40438;52.992;18.604;2023-06-26T14:26:59;31.60;33.02
54540;SHT30;40438;52.992;18.604;2023-06-26T14:29:24;32.12;31.97
54540;SHT30;40438;52.992;18.604;2023-06-26T14:31:50;32.40;31.81
54540;SHT30;40438;52.992;18.604;2023-06-26T14:34:16;32.42;31.81
54540;SHT30;40438;52.992;18.604;2023-06-26T14:36:42;32.28;32.28
54540;SHT30;40438;52.992;18.604;2023-06-26T14:39:07;32.77;31.55
54540;SHT30;40438;52.992;18.604;2023-06-26T14:41:35;33.11;31.10
54540;SHT30;40438;52.992;18.604;2023-06-26T14:44:00;33.40;31.53
54540;SHT30;40438;52.992;18.604;2023-06-26T14:46:26;33.69;31.11
54540;SHT30;40438;52.992;18.604;2023-06-26T14:48:52;33.98;30.90
54540;SHT30;40438;52.992;18.604;2023-06-26T14:51:18;33.96;33.99
54540;SHT30;40438;52.992;18.604;2023-06-26T14:53:43;33.93;31.67
54540;SHT30;40438;52.992;18.604;2023-06-26T14:56:09;34.15;29.96
54540;SHT30;40438;52.992;18.604;2023-06-26T14:58:36;34.23;30.43
54540;SHT30;40438;52.992;18.604;2023-06-26T15:01:02;34.56;30.00
54540;SHT30;40438;52.992;18.604;2023-06-26T15:03:28;34.76;29.68
54540;SHT30;40438;52.992;18.604;2023-06-26T15:05:54;34.95;29.38
54540;SHT30;40438;52.992;18.604;2023-06-26T15:08:19;34.98;29.12
54540;SHT30;40438;52.992;18.604;2023-06-26T15:10:45;35.05;29.08
54540;SHT30;40438;52.992;18.604;2023-06-26T15:13:11;35.07;28.19